createdAt,value
2022-09-06T00:00:31.865Z,100457.77
2022-09-06T00:03:01.257Z,100450.73
2022-09-06T00:05:31.792Z,100457.62
2022-09-06T00:08:01.417Z,100457.55
2022-09-06T00:10:31.557Z,100451.90
2022-09-06T00:13:03.578Z,100446.70
2022-09-06T00:15:31.540Z,100446.64
2022-09-06T00:18:02.035Z,100447.73
2022-09-06T00:20:32.126Z,100450.15
2022-09-06T00:23:03.369Z,100448.23
2022-09-06T00:25:33.280Z,100451.48
2022-09-06T00:28:04.654Z,100449.62
2022-09-06T00:30:34.203Z,100450.69
2022-09-06T00:33:03.000Z,100451.92
2022-09-06T00:35:32.112Z,100452.13
2022-09-06T00:38:02.137Z,100450.50
2022-09-06T00:40:33.754Z,100451.92
2022-09-06T00:43:02.558Z,100452.54
2022-09-06T00:45:32.333Z,100449.77
2022-09-06T00:48:04.909Z,100452.70
2022-09-06T00:50:34.062Z,100455.73
2022-09-06T00:53:03.122Z,100458.77
2022-09-06T00:55:32.375Z,100459.68
2022-09-06T00:58:03.531Z,100458.33
2022-09-06T01:00:32.897Z,100454.84
2022-09-06T01:03:01.797Z,100448.36
2022-09-06T01:05:41.797Z,100449.96
2022-09-06T01:08:19.848Z,100447.90
2022-09-06T01:11:05.571Z,100443.04
2022-09-06T01:13:44.766Z,100441.35
2022-09-06T01:16:21.039Z,100437.08
2022-09-06T01:19:26.880Z,100434.14
2022-09-06T01:22:07.010Z,100431.50
2022-09-06T01:24:56.621Z,100425.25
2022-09-06T01:28:06.832Z,100424.13
2022-09-06T01:30:42.755Z,100421.92
2022-09-06T01:33:18.265Z,100423.72
2022-09-06T01:35:53.073Z,100419.30
2022-09-06T01:38:22.102Z,100417.45
2022-09-06T01:40:51.163Z,100414.90
2022-09-06T01:43:24.500Z,100412.02
2022-09-06T01:46:00.993Z,100406.98
2022-09-06T01:48:45.112Z,100408.31
2022-09-06T01:51:23.091Z,100408.44
2022-09-06T01:54:09.971Z,100408.67
2022-09-06T01:56:49.005Z,100400.30
2022-09-06T01:59:40.643Z,100398.84
2022-09-06T02:02:14.867Z,100395.30
2022-09-06T02:04:47.241Z,100401.05
2022-09-06T02:07:22.431Z,100401.94
2022-09-06T02:09:58.071Z,100405.47
2022-09-06T02:12:30.228Z,100418.33
2022-09-06T02:15:05.959Z,100424.58
2022-09-06T02:17:39.417Z,100429.28
2022-09-06T02:20:13.114Z,100431.58
2022-09-06T02:22:46.614Z,100426.00
2022-09-06T02:25:22.802Z,100425.21
2022-09-06T02:27:51.724Z,100428.83
2022-09-06T02:30:20.686Z,100434.35
2022-09-06T02:32:55.857Z,100435.38
2022-09-06T02:35:25.164Z,100442.02
2022-09-06T02:37:55.815Z,100442.57
2022-09-06T02:40:25.095Z,100438.06
2022-09-06T02:42:54.059Z,100435.48
2022-09-06T02:45:22.869Z,100426.51
2022-09-06T02:47:51.677Z,100422.50
2022-09-06T02:50:20.459Z,100425.13
2022-09-06T02:53:02.051Z,100429.20
2022-09-06T02:55:31.250Z,100425.74
2022-09-06T02:58:00.153Z,100429.51
2022-09-06T03:00:29.652Z,100425.98
2022-09-06T03:02:58.639Z,100419.75
2022-09-06T03:05:28.235Z,100416.23
2022-09-06T03:07:57.564Z,100411.08
2022-09-06T03:10:26.679Z,100407.77
2022-09-06T03:12:55.563Z,100402.73
2022-09-06T03:15:24.276Z,100399.54
2022-09-06T03:17:58.438Z,100391.95
2022-09-06T03:20:27.306Z,100385.27
2022-09-06T03:22:56.344Z,100386.40
2022-09-06T03:25:25.491Z,100388.59
2022-09-06T03:27:57.886Z,100391.69
2022-09-06T03:30:26.890Z,100394.20
2022-09-06T03:32:55.671Z,100397.48
2022-09-06T03:35:24.856Z,100393.44
2022-09-06T03:37:53.647Z,100391.24
2022-09-06T03:40:22.546Z,100394.09
2022-09-06T03:42:51.251Z,100397.44
2022-09-06T03:45:20.449Z,100401.37
2022-09-06T03:47:49.444Z,100411.13
2022-09-06T03:50:18.395Z,100407.65
2022-09-06T03:52:47.206Z,100403.09
2022-09-06T03:55:16.215Z,100396.07
2022-09-06T03:57:45.108Z,100389.48
2022-09-06T04:00:16.414Z,100388.16
2022-09-06T04:02:45.419Z,100384.42
2022-09-06T04:05:15.922Z,100385.40
2022-09-06T04:07:44.792Z,100390.83
2022-09-06T04:10:13.652Z,100394.36
2022-09-06T04:12:43.069Z,100393.33
2022-09-06T04:15:12.399Z,100392.70
2022-09-06T04:17:45.003Z,100391.64
2022-09-06T04:20:14.458Z,100392.27
2022-09-06T04:22:43.323Z,100396.20
2022-09-06T04:25:13.189Z,100397.09
2022-09-06T04:27:42.060Z,100392.27
2022-09-06T04:30:11.995Z,100402.89
2022-09-06T04:32:41.538Z,100405.50
2022-09-06T04:35:10.509Z,100407.79
2022-09-06T04:37:39.969Z,100407.77
2022-09-06T04:40:10.131Z,100407.69
2022-09-06T04:42:39.088Z,100410.00
2022-09-06T04:45:10.341Z,100413.58
2022-09-06T04:47:39.096Z,100408.52
2022-09-06T04:50:09.285Z,100412.16
2022-09-06T04:52:38.113Z,100410.73
2022-09-06T04:55:08.632Z,100411.94
2022-09-06T04:57:42.179Z,100416.08
2022-09-06T05:00:15.297Z,100418.46
2022-09-06T05:02:44.540Z,100420.60
2022-09-06T05:05:13.923Z,100423.21
2022-09-06T05:07:42.891Z,100422.66
2022-09-06T05:10:11.944Z,100422.52
2022-09-06T05:12:44.163Z,100419.77
2022-09-06T05:15:13.598Z,100417.75
2022-09-06T05:17:42.480Z,100414.52
2022-09-06T05:20:12.691Z,100420.65
2022-09-06T05:22:41.604Z,100424.70
2022-09-06T05:25:11.785Z,100429.05
2022-09-06T05:27:40.530Z,100422.98
2022-09-06T05:30:12.380Z,100425.06
2022-09-06T05:32:41.230Z,100421.45
2022-09-06T05:35:10.625Z,100420.20
2022-09-06T05:37:39.619Z,100420.56
2022-09-06T05:40:10.485Z,100426.65
2022-09-06T05:42:40.465Z,100421.05
2022-09-06T05:45:10.267Z,100420.55
2022-09-06T05:47:39.206Z,100424.66
2022-09-06T05:50:10.023Z,100426.33
2022-09-06T05:52:39.167Z,100426.17
2022-09-06T05:55:09.562Z,100425.40
2022-09-06T05:57:38.358Z,100426.31
2022-09-06T06:00:11.523Z,100425.16
2022-09-06T06:02:40.476Z,100428.38
2022-09-06T06:05:09.933Z,100433.09
2022-09-06T06:07:38.677Z,100427.89
2022-09-06T06:10:08.845Z,100431.58
2022-09-06T06:12:37.997Z,100431.21
2022-09-06T06:15:08.706Z,100430.75
2022-09-06T06:17:37.570Z,100427.87
2022-09-06T06:20:08.689Z,100427.98
2022-09-06T06:22:38.451Z,100427.13
2022-09-06T06:25:08.351Z,100434.75
2022-09-06T06:27:37.282Z,100436.17
2022-09-06T06:30:08.610Z,100428.38
2022-09-06T06:32:37.432Z,100420.70
2022-09-06T06:35:09.173Z,100416.88
2022-09-06T06:37:38.105Z,100415.81
2022-09-06T06:40:09.422Z,100413.73
2022-09-06T06:42:38.451Z,100411.98
2022-09-06T06:45:09.360Z,100415.17
2022-09-06T06:47:38.236Z,100414.57
2022-09-06T06:50:08.506Z,100418.07
2022-09-06T06:52:37.391Z,100414.44
2022-09-06T06:55:07.583Z,100412.24
2022-09-06T06:57:36.414Z,100410.72
2022-09-06T07:00:07.594Z,100410.89
2022-09-06T07:02:36.586Z,100409.35
2022-09-06T07:07:55.878Z,100421.84
2022-09-06T07:13:01.427Z,100434.31
2022-09-06T07:15:30.644Z,100438.60
2022-09-06T07:17:59.278Z,100438.11
2022-09-06T07:20:28.329Z,100434.73
2022-09-06T07:25:50.162Z,100442.94
2022-09-06T07:28:18.916Z,100435.86
2022-09-06T07:30:47.656Z,100431.33
2022-09-06T07:33:16.528Z,100432.77
2022-09-06T07:35:55.767Z,100437.09
2022-09-06T07:38:24.779Z,100433.73
2022-09-06T07:40:58.029Z,100437.02
2022-09-06T07:43:28.215Z,100435.70
2022-09-06T07:46:04.717Z,100437.06
2022-09-06T07:48:35.955Z,100432.79
2022-09-06T07:51:07.571Z,100435.98
2022-09-06T07:53:37.952Z,100433.58
2022-09-06T07:56:08.975Z,100434.73
2022-09-06T07:58:39.302Z,100436.51
2022-09-06T08:01:32.325Z,100435.77
2022-09-06T08:04:03.282Z,100447.56
2022-09-06T08:09:23.439Z,100444.28
2022-09-06T08:11:52.581Z,100438.53
2022-09-06T08:14:21.431Z,100439.81
2022-09-06T08:16:50.514Z,100440.54
2022-09-06T08:19:19.583Z,100443.15
2022-09-06T08:21:49.121Z,100449.30
2022-09-06T08:24:17.984Z,100444.69
2022-09-06T08:26:46.862Z,100436.11
2022-09-06T08:29:15.862Z,100434.23
2022-09-06T08:31:46.659Z,100436.84
2022-09-06T08:34:15.824Z,100436.70
2022-09-06T08:36:46.001Z,100434.77
2022-09-06T08:39:16.179Z,100433.72
2022-09-06T08:41:51.998Z,100431.55
2022-09-06T08:47:14.615Z,100422.66
2022-09-06T08:49:45.569Z,100423.29
2022-09-06T08:52:31.377Z,100412.50
2022-09-06T08:55:12.860Z,100413.39
2022-09-06T08:58:01.316Z,100413.73
2022-09-06T09:00:31.625Z,100400.44
2022-09-06T09:03:07.519Z,100396.95
2022-09-06T09:05:38.332Z,100389.88
2022-09-06T09:08:20.027Z,100390.55
2022-09-06T09:10:53.914Z,100393.28
2022-09-06T09:13:30.622Z,100389.98
2022-09-06T09:15:59.724Z,100387.84
2022-09-06T09:18:33.436Z,100386.50
2022-09-06T09:21:02.659Z,100385.66
2022-09-06T09:23:31.895Z,100386.02
2022-09-06T09:26:04.663Z,100384.29
2022-09-06T09:28:35.379Z,100380.29
2022-09-06T09:31:04.750Z,100377.52
2022-09-06T09:33:38.408Z,100373.62
2022-09-06T09:36:07.505Z,100372.86
2022-09-06T09:38:42.606Z,100368.41
2022-09-06T09:41:24.064Z,100357.92
2022-09-06T09:44:04.220Z,100349.15
2022-09-06T09:46:35.289Z,100348.86
2022-09-06T09:49:07.375Z,100347.20
2022-09-06T09:51:37.837Z,100345.34
2022-09-06T09:54:08.401Z,100342.62
2022-09-06T09:56:49.808Z,100345.58
2022-09-06T09:59:27.822Z,100346.77
2022-09-06T10:01:59.457Z,100350.36
2022-09-06T10:04:46.687Z,100348.05
2022-09-06T10:07:18.457Z,100340.39
2022-09-06T10:09:49.624Z,100336.49
2022-09-06T10:12:28.357Z,100335.70
2022-09-06T10:14:57.652Z,100332.48
2022-09-06T10:17:37.279Z,100331.94
2022-09-06T10:20:10.164Z,100326.06
2022-09-06T10:22:51.440Z,100324.00
2022-09-06T10:25:38.464Z,100319.55
2022-09-06T10:28:28.110Z,100317.95
2022-09-06T10:31:08.886Z,100319.20
2022-09-06T10:33:50.500Z,100318.48
2022-09-06T10:36:26.595Z,100320.62
2022-09-06T10:39:03.481Z,100324.38
2022-09-06T10:41:52.552Z,100326.52
2022-09-06T10:44:38.168Z,100329.89
2022-09-06T10:47:11.695Z,100328.27
2022-09-06T10:49:44.043Z,100326.20
2022-09-06T10:52:18.940Z,100321.41
2022-09-06T10:54:48.215Z,100314.34
2022-09-06T11:00:13.921Z,100297.52
2022-09-06T11:05:44.083Z,100291.71
2022-09-06T11:11:15.645Z,100285.63
2022-09-06T11:13:44.362Z,100283.80
2022-09-06T11:16:19.924Z,100273.56
2022-09-06T11:18:55.265Z,100270.74
2022-09-06T11:22:01.285Z,100275.84
2022-09-06T11:24:43.155Z,100273.30
2022-09-06T11:27:15.270Z,100275.14
2022-09-06T11:29:47.662Z,100275.45
2022-09-06T11:32:34.139Z,100271.98
2022-09-06T11:35:09.363Z,100264.40
2022-09-06T11:37:42.327Z,100259.44
2022-09-06T11:43:12.308Z,100259.91
2022-09-06T11:45:45.023Z,100252.73
2022-09-06T11:48:36.805Z,100252.86
2022-09-06T11:51:10.229Z,100247.90
2022-09-06T11:54:22.409Z,100246.70
2022-09-06T11:56:59.455Z,100249.46
2022-09-06T11:59:41.361Z,100247.86
2022-09-06T12:02:28.176Z,100245.52
2022-09-06T12:05:25.912Z,100242.33
2022-09-06T12:08:33.650Z,100241.42
2022-09-06T12:11:30.093Z,100239.84
2022-09-06T12:14:03.228Z,100232.99
2022-09-06T12:17:22.506Z,100233.93
2022-09-06T12:19:52.644Z,100234.15
2022-09-06T12:23:03.233Z,100230.90
2022-09-06T12:25:55.827Z,100230.10
2022-09-06T12:28:34.127Z,100233.12
2022-09-06T12:31:24.504Z,100228.49
2022-09-06T12:33:54.447Z,100224.14
2022-09-06T12:36:29.866Z,100218.30
2022-09-06T12:39:01.016Z,100213.80
2022-09-06T12:41:32.258Z,100212.42
2022-09-06T12:44:03.778Z,100213.14
2022-09-06T12:46:34.029Z,100214.35
2022-09-06T12:49:06.121Z,100208.48
2022-09-06T12:51:35.504Z,100200.73
2022-09-06T12:54:16.891Z,100202.55
2022-09-06T12:56:45.865Z,100201.80
2022-09-06T12:59:17.064Z,100202.45
2022-09-06T13:01:52.934Z,100198.30
2022-09-06T13:04:31.676Z,100196.77
2022-09-06T13:07:03.755Z,100194.34
2022-09-06T13:09:33.604Z,100188.10
2022-09-06T13:12:07.301Z,100180.55
2022-09-06T13:14:36.472Z,100187.96
2022-09-06T13:17:05.624Z,100180.17
2022-09-06T13:19:36.884Z,100183.42
2022-09-06T13:22:10.317Z,100177.67
2022-09-06T13:24:47.431Z,100171.48
2022-09-06T13:27:32.716Z,100171.17
2022-09-06T13:30:06.135Z,100169.29
2022-09-06T13:32:36.495Z,100166.89
2022-09-06T13:35:06.939Z,100163.56
2022-09-06T13:37:38.939Z,100161.05
2022-09-06T13:40:59.955Z,100162.64
2022-09-06T13:43:29.196Z,100158.13
2022-09-06T13:46:06.520Z,100161.88
2022-09-06T13:48:35.751Z,100163.02
2022-09-06T13:51:07.215Z,100157.30
2022-09-06T13:53:36.332Z,100155.05
2022-09-06T13:56:07.986Z,100149.77
2022-09-06T13:58:36.761Z,100152.80
2022-09-06T14:01:08.023Z,100150.41
2022-09-06T14:03:40.167Z,100153.30
2022-09-06T14:06:09.786Z,100153.35
2022-09-06T14:09:03.260Z,100152.98
2022-09-06T14:11:28.228Z,100153.41
2022-09-06T14:13:56.955Z,100151.90
2022-09-06T14:16:25.740Z,100155.13
2022-09-06T14:18:54.320Z,100144.80
2022-09-06T14:21:23.168Z,100143.02
2022-09-06T14:23:52.783Z,100137.08
2022-09-06T14:26:22.594Z,100138.89
2022-09-06T14:28:51.804Z,100145.36
2022-09-06T14:31:22.699Z,100148.16
2022-09-06T14:33:51.739Z,100147.96
2022-09-06T14:36:22.144Z,100141.66
2022-09-06T14:38:51.085Z,100133.06
2022-09-06T14:41:20.487Z,100128.75
2022-09-06T14:43:51.567Z,100124.21
2022-09-06T14:46:22.574Z,100119.50
2022-09-06T14:48:57.996Z,100130.66
2022-09-06T14:51:26.963Z,100125.70
2022-09-06T14:53:58.291Z,100126.02
2022-09-06T14:56:27.287Z,100124.36
2022-09-06T14:58:57.299Z,100124.94
2022-09-06T15:01:28.313Z,100116.41
2022-09-06T15:03:59.152Z,100112.55
2022-09-06T15:06:29.288Z,100115.23
2022-09-06T15:08:59.511Z,100111.67
2022-09-06T15:11:29.856Z,100114.73
2022-09-06T15:13:58.878Z,100112.41
2022-09-06T15:16:27.791Z,100105.41
2022-09-06T15:18:56.418Z,100098.21
2022-09-06T15:21:26.072Z,100099.23
2022-09-06T15:23:56.965Z,100097.13
2022-09-06T15:26:25.830Z,100095.55
2022-09-06T15:28:59.546Z,100094.98
2022-09-06T15:31:33.583Z,100100.15
2022-09-06T15:34:17.929Z,100100.20
2022-09-06T15:36:46.819Z,100097.33
2022-09-06T15:39:25.005Z,100100.20
2022-09-06T15:41:53.835Z,100097.87
2022-09-06T15:44:22.465Z,100098.93
2022-09-06T15:46:54.424Z,100099.98
2022-09-06T15:49:28.409Z,100101.20
2022-09-06T15:52:00.242Z,100099.70
2022-09-06T15:54:50.801Z,100097.79
2022-09-06T15:57:22.004Z,100093.64
2022-09-06T15:59:50.925Z,100093.38
2022-09-06T16:02:19.626Z,100088.60
2022-09-06T16:04:48.447Z,100083.88
2022-09-06T16:07:19.593Z,100087.73
2022-09-06T16:09:50.077Z,100085.71
2022-09-06T16:12:18.721Z,100084.34
2022-09-06T16:14:48.575Z,100083.85
2022-09-06T16:17:17.350Z,100076.04
2022-09-06T16:19:46.041Z,100075.64
2022-09-06T16:22:14.692Z,100076.19
2022-09-06T16:24:43.343Z,100074.20
2022-09-06T16:27:11.970Z,100072.39
2022-09-06T16:29:41.287Z,100068.21
2022-09-06T16:32:09.985Z,100070.70
2022-09-06T16:34:39.191Z,100067.73
2022-09-06T16:37:07.993Z,100066.15
2022-09-06T16:39:37.028Z,100067.59
2022-09-06T16:42:06.028Z,100070.28
2022-09-06T16:44:34.681Z,100072.42
2022-09-06T16:47:04.591Z,100067.76
2022-09-06T16:49:33.242Z,100072.28
2022-09-06T16:52:02.356Z,100071.46
2022-09-06T16:54:31.224Z,100070.65
2022-09-06T16:57:01.185Z,100072.15
2022-09-06T16:59:29.863Z,100073.89
2022-09-06T17:01:58.620Z,100074.80
2022-09-06T17:04:27.483Z,100073.77
2022-09-06T17:06:56.292Z,100073.27
2022-09-06T17:09:25.186Z,100071.95
2022-09-06T17:11:54.594Z,100077.02
2022-09-06T17:14:23.214Z,100070.21
2022-09-06T17:17:04.381Z,100066.75
2022-09-06T17:19:36.430Z,100060.77
2022-09-06T17:22:06.053Z,100059.45
2022-09-06T17:24:36.319Z,100056.52
2022-09-06T17:27:06.623Z,100059.08
2022-09-06T17:29:35.672Z,100058.08
2022-09-06T17:32:09.414Z,100064.88
2022-09-06T17:34:39.399Z,100071.50
2022-09-06T17:37:08.407Z,100072.06
2022-09-06T17:39:37.908Z,100075.38
2022-09-06T17:42:08.126Z,100076.29
2022-09-06T17:44:37.469Z,100081.20
2022-09-06T17:47:14.553Z,100079.95
2022-09-06T17:49:43.718Z,100082.70
2022-09-06T17:52:13.350Z,100082.79
2022-09-06T17:54:43.445Z,100079.65
2022-09-06T17:57:12.498Z,100078.59
2022-09-06T17:59:41.461Z,100086.98
2022-09-06T18:02:10.555Z,100087.68
2022-09-06T18:04:39.723Z,100086.30
2022-09-06T18:07:08.510Z,100082.17
2022-09-06T18:09:37.919Z,100080.27
2022-09-06T18:12:08.018Z,100086.15
2022-09-06T18:14:37.337Z,100095.20
2022-09-06T18:17:08.242Z,100096.33
2022-09-06T18:19:38.144Z,100093.73
2022-09-06T18:22:08.268Z,100089.98
2022-09-06T18:24:37.912Z,100094.88
2022-09-06T18:27:06.992Z,100098.38
2022-09-06T18:29:40.025Z,100098.52
2022-09-06T18:32:09.696Z,100103.16
2022-09-06T18:34:39.134Z,100107.35
2022-09-06T18:37:08.802Z,100107.07
2022-09-06T18:39:42.113Z,100109.27
2022-09-06T18:42:12.977Z,100113.54
2022-09-06T18:44:44.106Z,100114.52
2022-09-06T18:47:14.290Z,100114.82
2022-09-06T18:49:44.592Z,100114.52
2022-09-06T18:52:15.283Z,100103.83
2022-09-06T18:54:45.801Z,100106.75
2022-09-06T18:57:16.773Z,100101.15
2022-09-06T18:59:49.027Z,100106.28
2022-09-06T19:02:22.940Z,100106.58
2022-09-06T19:04:55.497Z,100104.50
2022-09-06T19:07:28.546Z,100103.08
2022-09-06T19:10:00.820Z,100103.80
2022-09-06T19:12:31.917Z,100101.73
2022-09-06T19:15:05.081Z,100100.98
2022-09-06T19:17:40.752Z,100098.77
2022-09-06T19:20:13.028Z,100097.89
2022-09-06T19:22:43.888Z,100098.68
2022-09-06T19:25:17.315Z,100099.20
2022-09-06T19:27:49.687Z,100095.15
2022-09-06T19:30:23.412Z,100093.50
2022-09-06T19:32:54.111Z,100090.14
2022-09-06T19:35:29.841Z,100090.95
2022-09-06T19:38:03.621Z,100094.27
2022-09-06T19:40:35.425Z,100094.12
2022-09-06T19:43:10.127Z,100093.98
2022-09-06T19:45:43.523Z,100094.60
2022-09-06T19:48:18.573Z,100091.30
2022-09-06T19:50:48.680Z,100092.30
2022-09-06T19:53:27.479Z,100087.35
2022-09-06T19:55:58.413Z,100085.27
2022-09-06T19:58:29.171Z,100085.99
2022-09-06T20:00:59.324Z,100081.79
2022-09-06T20:03:40.738Z,100079.02
2022-09-06T20:06:14.135Z,100077.90
2022-09-06T20:08:44.061Z,100081.42
2022-09-06T20:11:13.262Z,100084.36
2022-09-06T20:13:43.312Z,100086.23
2022-09-06T20:16:13.061Z,100082.65
2022-09-06T20:18:42.427Z,100081.80
2022-09-06T20:21:13.283Z,100075.85
2022-09-06T20:23:42.006Z,100069.52
2022-09-06T20:26:12.893Z,100066.77
2022-09-06T20:28:43.499Z,100059.92
2022-09-06T20:31:14.900Z,100056.20
2022-09-06T20:33:48.714Z,100052.36
2022-09-06T20:36:20.709Z,100053.17
2022-09-06T20:38:50.328Z,100052.49
2022-09-06T20:41:20.856Z,100052.13
2022-09-06T20:43:52.597Z,100053.48
2022-09-06T20:46:24.081Z,100054.80
2022-09-06T20:48:55.011Z,100058.41
2022-09-06T20:51:24.706Z,100059.91
2022-09-06T20:53:54.690Z,100063.31
2022-09-06T20:56:30.233Z,100065.91
2022-09-06T20:59:02.017Z,100067.09
2022-09-06T21:01:34.135Z,100066.23
2022-09-06T21:04:02.958Z,100072.91
2022-09-06T21:06:33.943Z,100071.98
2022-09-06T21:09:03.319Z,100064.19
2022-09-06T21:11:32.588Z,100063.20
2022-09-06T21:14:01.183Z,100054.38
2022-09-06T21:16:30.571Z,100052.16
2022-09-06T21:19:02.817Z,100044.49
2022-09-06T21:21:32.007Z,100046.24
2022-09-06T21:24:02.532Z,100047.77
2022-09-06T21:26:31.613Z,100046.26
2022-09-06T21:29:00.949Z,100046.98
2022-09-06T21:31:31.151Z,100048.75
2022-09-06T21:34:02.935Z,100050.90
2022-09-06T21:36:34.188Z,100051.70
2022-09-06T21:39:06.270Z,100055.67
2022-09-06T21:41:34.418Z,100051.44
2022-09-06T21:44:04.600Z,100052.00
2022-09-06T21:46:35.805Z,100047.36
2022-09-06T21:49:06.864Z,100044.98
2022-09-06T21:51:36.697Z,100048.88
2022-09-06T21:54:06.592Z,100046.77
2022-09-06T21:56:37.037Z,100046.08
2022-09-06T21:59:06.367Z,100044.19
2022-09-06T22:01:36.943Z,100041.98
2022-09-06T22:04:06.697Z,100038.92
2022-09-06T22:06:37.191Z,100031.36
2022-09-06T22:09:10.255Z,100032.19
2022-09-06T22:11:40.536Z,100032.29
2022-09-06T22:14:11.439Z,100031.97
2022-09-06T22:16:41.030Z,100030.16
2022-09-06T22:19:10.755Z,100027.20
2022-09-06T22:21:39.651Z,100024.20
2022-09-06T22:24:09.797Z,100028.58
2022-09-06T22:26:40.147Z,100030.15
2022-09-06T22:29:10.847Z,100030.90
2022-09-06T22:31:40.564Z,100030.36
2022-09-06T22:34:10.201Z,100032.95
2022-09-06T22:36:38.960Z,100032.13
2022-09-06T22:39:08.911Z,100034.21
2022-09-06T22:41:37.974Z,100029.88
2022-09-06T22:44:07.061Z,100031.06
2022-09-06T22:46:36.988Z,100034.05
2022-09-06T22:49:06.280Z,100033.02
2022-09-06T22:51:34.970Z,100032.52
2022-09-06T22:54:04.384Z,100035.64
2022-09-06T22:56:33.318Z,100031.20
2022-09-06T22:59:02.484Z,100031.96
2022-09-06T23:01:32.265Z,100030.27
2022-09-06T23:04:01.578Z,100029.41
2022-09-06T23:06:30.216Z,100033.54
2022-09-06T23:08:59.356Z,100035.23
2022-09-06T23:11:28.307Z,100031.20
2022-09-06T23:13:57.803Z,100027.00
2022-09-06T23:16:27.794Z,100024.83
2022-09-06T23:18:56.467Z,100023.80
2022-09-06T23:21:26.116Z,100021.77
2022-09-06T23:23:56.742Z,100023.80
2022-09-06T23:26:28.093Z,100023.39
2022-09-06T23:28:57.230Z,100020.11
2022-09-06T23:31:28.728Z,100019.16
2022-09-06T23:33:59.124Z,100016.27
2022-09-06T23:36:28.286Z,100009.12
2022-09-06T23:38:57.358Z,100006.15
2022-09-06T23:41:26.046Z,100002.05
2022-09-06T23:43:54.937Z,100005.38
2022-09-06T23:46:23.671Z,100008.25
2022-09-06T23:48:52.536Z,100005.64
2022-09-06T23:51:21.579Z,100003.85
2022-09-06T23:53:50.248Z,100002.20
2022-09-06T23:56:20.211Z,99994.20
2022-09-06T23:58:48.985Z,99991.70
